sensor_id;sensor_type;location;lat;lon;timestamp;P1;durP1;ratioP1;P2;durP2;ratioP2
25123;SDS011;13104;51.030;4.686;2023-12-14T00:00:20;13.77;;;6.05;;
25123;SDS011;13104;51.030;4.686;2023-12-14T00:02:47;23.00;;;6.28;;
25123;SDS011;13104;51.030;4.686;2023-12-14T00:05:13;12.85;;;5.95;;
25123;SDS011;13104;51.030;4.686;2023-12-14T00:07:39;13.75;;;7.63;;
25123;SDS011;13104;51.030;4.686;2023-12-14T00:10:05;12.60;;;6.85;;
25123;SDS011;13104;51.030;4.686;2023-12-14T00:12:31;19.17;;;7.13;;
25123;SDS011;13104;51.030;4.686;2023-12-14T00:14:57;16.35;;;6.85;;
25123;SDS011;13104;51.030;4.686;2023-12-14T00:17:23;15.43;;;6.68;;
25123;SDS011;13104;51.030;4.686;2023-12-14T00:19:49;16.20;;;6.75;;
25123;SDS011;13104;51.030;4.686;2023-12-14T00:22:15;12.02;;;6.90;;
25123;SDS011;13104;51.030;4.686;2023-12-14T00:24:42;11.05;;;6.55;;
25123;SDS011;13104;51.030;4.686;2023-12-14T00:27:08;12.75;;;7.28;;
25123;SDS011;13104;51.030;4.686;2023-12-14T00:29:34;19.67;;;7.20;;
25123;SDS011;13104;51.030;4.686;2023-12-14T00:32:00;16.90;;;8.95;;
25123;SDS011;13104;51.030;4.686;2023-12-14T00:34:26;14.90;;;8.02;;
25123;SDS011;13104;51.030;4.686;2023-12-14T00:36:52;16.50;;;6.82;;
25123;SDS011;13104;51.030;4.686;2023-12-14T00:39:18;17.60;;;6.85;;
25123;SDS011;13104;51.030;4.686;2023-12-14T00:41:44;19.27;;;7.60;;
25123;SDS011;13104;51.030;4.686;2023-12-14T00:44:10;13.30;;;6.90;;
25123;SDS011;13104;51.030;4.686;2023-12-14T00:46:36;18.50;;;8.55;;
25123;SDS011;13104;51.030;4.686;2023-12-14T00:49:02;14.18;;;7.47;;
25123;SDS011;13104;51.030;4.686;2023-12-14T00:51:28;13.65;;;6.85;;
25123;SDS011;13104;51.030;4.686;2023-12-14T00:53:55;12.18;;;6.78;;
25123;SDS011;13104;51.030;4.686;2023-12-14T00:56:21;22.58;;;7.30;;
25123;SDS011;13104;51.030;4.686;2023-12-14T00:58:47;21.80;;;6.82;;
25123;SDS011;13104;51.030;4.686;2023-12-14T01:01:13;12.95;;;6.07;;
25123;SDS011;13104;51.030;4.686;2023-12-14T01:03:39;19.45;;;6.97;;
25123;SDS011;13104;51.030;4.686;2023-12-14T01:06:05;19.50;;;6.47;;
25123;SDS011;13104;51.030;4.686;2023-12-14T01:08:32;19.48;;;5.97;;
25123;SDS011;13104;51.030;4.686;2023-12-14T01:10:58;12.30;;;6.32;;
25123;SDS011;13104;51.030;4.686;2023-12-14T01:13:24;12.98;;;4.85;;
25123;SDS011;13104;51.030;4.686;2023-12-14T01:15:50;18.50;;;6.82;;
25123;SDS011;13104;51.030;4.686;2023-12-14T01:18:16;9.73;;;4.72;;
25123;SDS011;13104;51.030;4.686;2023-12-14T01:20:42;19.45;;;6.15;;
25123;SDS011;13104;51.030;4.686;2023-12-14T01:23:09;21.42;;;7.88;;
25123;SDS011;13104;51.030;4.686;2023-12-14T01:25:35;9.60;;;5.63;;
25123;SDS011;13104;51.030;4.686;2023-12-14T01:28:01;9.27;;;5.38;;
25123;SDS011;13104;51.030;4.686;2023-12-14T01:30:27;15.60;;;5.20;;
25123;SDS011;13104;51.030;4.686;2023-12-14T01:32:53;13.73;;;6.45;;
25123;SDS011;13104;51.030;4.686;2023-12-14T01:35:19;10.82;;;5.00;;
25123;SDS011;13104;51.030;4.686;2023-12-14T01:37:46;9.00;;;5.35;;
25123;SDS011;13104;51.030;4.686;2023-12-14T01:40:12;14.02;;;5.57;;
25123;SDS011;13104;51.030;4.686;2023-12-14T01:42:38;12.18;;;5.03;;
25123;SDS011;13104;51.030;4.686;2023-12-14T01:45:05;20.75;;;5.60;;
25123;SDS011;13104;51.030;4.686;2023-12-14T01:47:31;11.85;;;6.28;;
25123;SDS011;13104;51.030;4.686;2023-12-14T01:49:57;10.77;;;5.25;;
25123;SDS011;13104;51.030;4.686;2023-12-14T01:52:23;14.98;;;5.00;;
25123;SDS011;13104;51.030;4.686;2023-12-14T01:54:49;23.35;;;5.03;;
25123;SDS011;13104;51.030;4.686;2023-12-14T01:57:15;9.88;;;5.43;;
25123;SDS011;13104;51.030;4.686;2023-12-14T01:59:41;12.95;;;4.85;;
25123;SDS011;13104;51.030;4.686;2023-12-14T02:02:07;7.07;;;4.65;;
25123;SDS011;13104;51.030;4.686;2023-12-14T02:04:33;8.65;;;3.58;;
25123;SDS011;13104;51.030;4.686;2023-12-14T02:06:59;17.45;;;5.45;;
25123;SDS011;13104;51.030;4.686;2023-12-14T02:09:25;9.43;;;3.80;;
25123;SDS011;13104;51.030;4.686;2023-12-14T02:11:52;9.60;;;4.32;;
25123;SDS011;13104;51.030;4.686;2023-12-14T02:14:18;7.05;;;4.38;;
25123;SDS011;13104;51.030;4.686;2023-12-14T02:16:48;9.65;;;4.78;;
25123;SDS011;13104;51.030;4.686;2023-12-14T02:19:14;13.23;;;4.95;;
25123;SDS011;13104;51.030;4.686;2023-12-14T02:21:40;5.88;;;4.05;;
25123;SDS011;13104;51.030;4.686;2023-12-14T02:24:06;8.20;;;4.70;;
25123;SDS011;13104;51.030;4.686;2023-12-14T02:26:32;9.68;;;5.13;;
25123;SDS011;13104;51.030;4.686;2023-12-14T02:28:58;8.98;;;5.15;;
25123;SDS011;13104;51.030;4.686;2023-12-14T02:31:24;7.60;;;4.50;;
25123;SDS011;13104;51.030;4.686;2023-12-14T02:33:50;8.52;;;5.15;;
25123;SDS011;13104;51.030;4.686;2023-12-14T02:36:16;9.23;;;4.93;;
25123;SDS011;13104;51.030;4.686;2023-12-14T02:38:42;8.85;;;5.00;;
25123;SDS011;13104;51.030;4.686;2023-12-14T02:41:09;10.93;;;5.38;;
25123;SDS011;13104;51.030;4.686;2023-12-14T02:43:36;12.82;;;5.25;;
25123;SDS011;13104;51.030;4.686;2023-12-14T02:46:03;7.40;;;4.18;;
25123;SDS011;13104;51.030;4.686;2023-12-14T02:48:29;11.57;;;5.88;;
25123;SDS011;13104;51.030;4.686;2023-12-14T02:50:55;9.45;;;5.32;;
25123;SDS011;13104;51.030;4.686;2023-12-14T02:53:22;6.68;;;5.43;;
25123;SDS011;13104;51.030;4.686;2023-12-14T02:55:48;6.88;;;6.10;;
25123;SDS011;13104;51.030;4.686;2023-12-14T02:58:14;7.35;;;5.32;;
25123;SDS011;13104;51.030;4.686;2023-12-14T03:00:40;10.05;;;5.25;;
25123;SDS011;13104;51.030;4.686;2023-12-14T03:03:06;9.55;;;5.45;;
25123;SDS011;13104;51.030;4.686;2023-12-14T03:05:32;11.32;;;5.75;;
25123;SDS011;13104;51.030;4.686;2023-12-14T03:07:58;8.80;;;6.45;;
25123;SDS011;13104;51.030;4.686;2023-12-14T03:10:24;9.13;;;6.53;;
25123;SDS011;13104;51.030;4.686;2023-12-14T03:12:50;11.07;;;5.32;;
25123;SDS011;13104;51.030;4.686;2023-12-14T03:15:18;9.02;;;5.93;;
25123;SDS011;13104;51.030;4.686;2023-12-14T03:17:44;15.43;;;7.18;;
25123;SDS011;13104;51.030;4.686;2023-12-14T03:20:10;9.82;;;5.65;;
25123;SDS011;13104;51.030;4.686;2023-12-14T03:22:39;9.20;;;6.90;;
25123;SDS011;13104;51.030;4.686;2023-12-14T03:25:05;7.35;;;6.70;;
25123;SDS011;13104;51.030;4.686;2023-12-14T03:27:31;14.25;;;7.40;;
25123;SDS011;13104;51.030;4.686;2023-12-14T03:29:57;11.45;;;7.57;;
25123;SDS011;13104;51.030;4.686;2023-12-14T03:32:23;9.13;;;7.78;;
25123;SDS011;13104;51.030;4.686;2023-12-14T03:34:49;8.85;;;8.05;;
25123;SDS011;13104;51.030;4.686;2023-12-14T03:37:15;10.10;;;7.88;;
25123;SDS011;13104;51.030;4.686;2023-12-14T03:39:41;7.45;;;6.75;;
25123;SDS011;13104;51.030;4.686;2023-12-14T03:42:07;16.63;;;8.27;;
25123;SDS011;13104;51.030;4.686;2023-12-14T03:44:33;15.27;;;9.30;;
25123;SDS011;13104;51.030;4.686;2023-12-14T03:46:59;11.18;;;7.30;;
25123;SDS011;13104;51.030;4.686;2023-12-14T03:49:26;8.93;;;8.00;;
25123;SDS011;13104;51.030;4.686;2023-12-14T03:51:52;7.57;;;6.88;;
25123;SDS011;13104;51.030;4.686;2023-12-14T03:54:18;9.93;;;8.23;;
25123;SDS011;13104;51.030;4.686;2023-12-14T03:56:44;10.70;;;9.40;;
25123;SDS011;13104;51.030;4.686;2023-12-14T03:59:10;11.95;;;10.85;;
25123;SDS011;13104;51.030;4.686;2023-12-14T04:01:36;11.27;;;10.35;;
25123;SDS011;13104;51.030;4.686;2023-12-14T04:04:04;9.18;;;8.38;;
25123;SDS011;13104;51.030;4.686;2023-12-14T04:06:30;19.05;;;11.85;;
25123;SDS011;13104;51.030;4.686;2023-12-14T04:08:56;12.35;;;11.15;;
25123;SDS011;13104;51.030;4.686;2023-12-14T04:11:22;11.30;;;10.30;;
25123;SDS011;13104;51.030;4.686;2023-12-14T04:13:49;11.52;;;10.02;;
25123;SDS011;13104;51.030;4.686;2023-12-14T04:16:15;11.05;;;10.00;;
25123;SDS011;13104;51.030;4.686;2023-12-14T04:18:41;15.00;;;12.98;;
25123;SDS011;13104;51.030;4.686;2023-12-14T04:21:07;11.20;;;10.40;;
25123;SDS011;13104;51.030;4.686;2023-12-14T04:23:33;10.00;;;9.20;;
25123;SDS011;13104;51.030;4.686;2023-12-14T04:25:59;9.93;;;9.13;;
25123;SDS011;13104;51.030;4.686;2023-12-14T04:28:26;13.77;;;12.57;;
25123;SDS011;13104;51.030;4.686;2023-12-14T04:30:52;10.88;;;10.23;;
25123;SDS011;13104;51.030;4.686;2023-12-14T04:33:18;12.43;;;11.48;;
25123;SDS011;13104;51.030;4.686;2023-12-14T04:35:44;11.98;;;9.38;;
25123;SDS011;13104;51.030;4.686;2023-12-14T04:38:10;10.63;;;9.90;;
25123;SDS011;13104;51.030;4.686;2023-12-14T04:40:36;11.38;;;10.48;;
25123;SDS011;13104;51.030;4.686;2023-12-14T04:43:02;11.10;;;10.02;;
25123;SDS011;13104;51.030;4.686;2023-12-14T04:45:28;10.52;;;9.52;;
25123;SDS011;13104;51.030;4.686;2023-12-14T04:47:54;10.15;;;9.20;;
25123;SDS011;13104;51.030;4.686;2023-12-14T04:50:20;11.25;;;9.65;;
25123;SDS011;13104;51.030;4.686;2023-12-14T04:52:46;11.23;;;10.32;;
25123;SDS011;13104;51.030;4.686;2023-12-14T04:55:12;10.63;;;9.65;;
25123;SDS011;13104;51.030;4.686;2023-12-14T04:57:38;14.13;;;11.27;;
25123;SDS011;13104;51.030;4.686;2023-12-14T05:00:05;13.73;;;8.82;;
25123;SDS011;13104;51.030;4.686;2023-12-14T05:02:32;9.98;;;8.98;;
25123;SDS011;13104;51.030;4.686;2023-12-14T05:04:58;16.10;;;8.95;;
25123;SDS011;13104;51.030;4.686;2023-12-14T05:07:24;9.57;;;8.63;;
25123;SDS011;13104;51.030;4.686;2023-12-14T05:09:51;10.02;;;9.32;;
25123;SDS011;13104;51.030;4.686;2023-12-14T05:12:17;10.32;;;9.40;;
25123;SDS011;13104;51.030;4.686;2023-12-14T05:14:43;11.10;;;9.45;;
25123;SDS011;13104;51.030;4.686;2023-12-14T05:17:09;8.23;;;7.60;;
25123;SDS011;13104;51.030;4.686;2023-12-14T05:19:36;12.75;;;10.35;;
25123;SDS011;13104;51.030;4.686;2023-12-14T05:22:02;8.50;;;7.78;;
25123;SDS011;13104;51.030;4.686;2023-12-14T05:24:28;9.68;;;8.73;;
25123;SDS011;13104;51.030;4.686;2023-12-14T05:26:54;9.70;;;8.63;;
25123;SDS011;13104;51.030;4.686;2023-12-14T05:29:20;9.25;;;8.52;;
25123;SDS011;13104;51.030;4.686;2023-12-14T05:31:48;10.15;;;9.18;;
25123;SDS011;13104;51.030;4.686;2023-12-14T05:34:15;10.35;;;9.35;;
25123;SDS011;13104;51.030;4.686;2023-12-14T05:36:41;13.52;;;9.25;;
25123;SDS011;13104;51.030;4.686;2023-12-14T05:39:07;8.48;;;7.03;;
25123;SDS011;13104;51.030;4.686;2023-12-14T05:41:39;13.55;;;7.68;;
25123;SDS011;13104;51.030;4.686;2023-12-14T05:44:05;11.38;;;7.25;;
25123;SDS011;13104;51.030;4.686;2023-12-14T05:46:31;8.30;;;7.50;;
25123;SDS011;13104;51.030;4.686;2023-12-14T05:48:57;8.98;;;7.55;;
25123;SDS011;13104;51.030;4.686;2023-12-14T05:51:29;14.13;;;7.15;;
25123;SDS011;13104;51.030;4.686;2023-12-14T05:53:56;8.77;;;6.60;;
25123;SDS011;13104;51.030;4.686;2023-12-14T05:56:22;7.07;;;6.47;;
25123;SDS011;13104;51.030;4.686;2023-12-14T05:58:48;7.80;;;5.65;;
25123;SDS011;13104;51.030;4.686;2023-12-14T06:01:16;6.35;;;5.75;;
25123;SDS011;13104;51.030;4.686;2023-12-14T06:03:43;10.57;;;6.82;;
25123;SDS011;13104;51.030;4.686;2023-12-14T06:06:09;8.05;;;6.18;;
25123;SDS011;13104;51.030;4.686;2023-12-14T06:08:35;7.70;;;6.38;;
25123;SDS011;13104;51.030;4.686;2023-12-14T06:11:01;15.88;;;7.25;;
25123;SDS011;13104;51.030;4.686;2023-12-14T06:13:27;10.93;;;5.55;;
25123;SDS011;13104;51.030;4.686;2023-12-14T06:15:53;8.40;;;6.28;;
25123;SDS011;13104;51.030;4.686;2023-12-14T06:18:19;6.95;;;6.28;;
25123;SDS011;13104;51.030;4.686;2023-12-14T06:20:45;7.07;;;6.10;;
25123;SDS011;13104;51.030;4.686;2023-12-14T06:23:11;6.68;;;5.75;;
25123;SDS011;13104;51.030;4.686;2023-12-14T06:25:37;13.80;;;6.63;;
25123;SDS011;13104;51.030;4.686;2023-12-14T06:28:03;9.18;;;5.82;;
25123;SDS011;13104;51.030;4.686;2023-12-14T06:30:30;7.45;;;6.18;;
25123;SDS011;13104;51.030;4.686;2023-12-14T06:32:56;8.07;;;5.80;;
25123;SDS011;13104;51.030;4.686;2023-12-14T06:35:22;11.07;;;6.70;;
25123;SDS011;13104;51.030;4.686;2023-12-14T06:37:48;6.88;;;5.88;;
25123;SDS011;13104;51.030;4.686;2023-12-14T06:40:14;7.35;;;6.45;;
25123;SDS011;13104;51.030;4.686;2023-12-14T06:42:40;13.98;;;6.30;;
25123;SDS011;13104;51.030;4.686;2023-12-14T06:45:07;6.93;;;6.28;;
25123;SDS011;13104;51.030;4.686;2023-12-14T06:47:33;6.63;;;6.03;;
25123;SDS011;13104;51.030;4.686;2023-12-14T06:49:59;9.88;;;7.25;;
25123;SDS011;13104;51.030;4.686;2023-12-14T06:52:25;7.90;;;6.07;;
25123;SDS011;13104;51.030;4.686;2023-12-14T06:54:51;7.03;;;5.90;;
25123;SDS011;13104;51.030;4.686;2023-12-14T06:57:18;8.55;;;6.50;;
25123;SDS011;13104;51.030;4.686;2023-12-14T06:59:44;7.30;;;4.93;;
25123;SDS011;13104;51.030;4.686;2023-12-14T07:02:10;7.00;;;5.20;;
25123;SDS011;13104;51.030;4.686;2023-12-14T07:04:36;9.30;;;6.32;;
25123;SDS011;13104;51.030;4.686;2023-12-14T07:07:02;11.15;;;6.30;;
25123;SDS011;13104;51.030;4.686;2023-12-14T07:09:28;7.50;;;6.72;;
25123;SDS011;13104;51.030;4.686;2023-12-14T07:11:54;20.60;;;6.38;;
25123;SDS011;13104;51.030;4.686;2023-12-14T07:14:20;10.35;;;6.43;;
25123;SDS011;13104;51.030;4.686;2023-12-14T07:16:46;7.35;;;6.68;;
25123;SDS011;13104;51.030;4.686;2023-12-14T07:19:12;8.27;;;6.43;;
25123;SDS011;13104;51.030;4.686;2023-12-14T07:21:38;12.05;;;6.03;;
25123;SDS011;13104;51.030;4.686;2023-12-14T07:24:04;6.78;;;5.53;;
25123;SDS011;13104;51.030;4.686;2023-12-14T07:26:30;8.85;;;6.20;;
25123;SDS011;13104;51.030;4.686;2023-12-14T07:28:56;12.55;;;5.95;;
25123;SDS011;13104;51.030;4.686;2023-12-14T07:31:22;9.30;;;6.50;;
25123;SDS011;13104;51.030;4.686;2023-12-14T07:33:49;6.30;;;5.70;;
25123;SDS011;13104;51.030;4.686;2023-12-14T07:36:15;9.20;;;6.20;;
25123;SDS011;13104;51.030;4.686;2023-12-14T07:38:41;8.60;;;5.75;;
25123;SDS011;13104;51.030;4.686;2023-12-14T07:41:07;15.77;;;6.75;;
25123;SDS011;13104;51.030;4.686;2023-12-14T07:43:33;5.53;;;5.03;;
25123;SDS011;13104;51.030;4.686;2023-12-14T07:45:59;5.05;;;4.32;;
25123;SDS011;13104;51.030;4.686;2023-12-14T07:48:25;9.75;;;4.82;;
25123;SDS011;13104;51.030;4.686;2023-12-14T07:50:53;7.78;;;3.88;;
25123;SDS011;13104;51.030;4.686;2023-12-14T07:53:19;15.40;;;4.18;;
25123;SDS011;13104;51.030;4.686;2023-12-14T07:55:46;6.35;;;5.20;;
25123;SDS011;13104;51.030;4.686;2023-12-14T07:58:12;10.32;;;3.97;;
25123;SDS011;13104;51.030;4.686;2023-12-14T08:00:38;6.30;;;4.43;;
25123;SDS011;13104;51.030;4.686;2023-12-14T08:03:04;7.65;;;4.45;;
25123;SDS011;13104;51.030;4.686;2023-12-14T08:05:30;4.13;;;3.53;;
25123;SDS011;13104;51.030;4.686;2023-12-14T08:07:56;5.53;;;3.33;;
25123;SDS011;13104;51.030;4.686;2023-12-14T08:10:22;7.75;;;4.20;;
25123;SDS011;13104;51.030;4.686;2023-12-14T08:12:48;7.55;;;3.67;;
25123;SDS011;13104;51.030;4.686;2023-12-14T08:15:16;7.38;;;3.70;;
25123;SDS011;13104;51.030;4.686;2023-12-14T08:17:42;3.97;;;3.35;;
25123;SDS011;13104;51.030;4.686;2023-12-14T08:20:09;3.97;;;3.63;;
25123;SDS011;13104;51.030;4.686;2023-12-14T08:22:36;7.78;;;3.33;;
25123;SDS011;13104;51.030;4.686;2023-12-14T08:25:02;7.53;;;2.90;;
25123;SDS011;13104;51.030;4.686;2023-12-14T08:27:29;8.80;;;5.07;;
25123;SDS011;13104;51.030;4.686;2023-12-14T08:29:55;6.85;;;4.10;;
25123;SDS011;13104;51.030;4.686;2023-12-14T08:32:21;5.55;;;3.45;;
25123;SDS011;13104;51.030;4.686;2023-12-14T08:34:47;3.88;;;3.55;;
25123;SDS011;13104;51.030;4.686;2023-12-14T08:37:13;6.60;;;4.28;;
25123;SDS011;13104;51.030;4.686;2023-12-14T08:39:39;5.45;;;3.58;;
25123;SDS011;13104;51.030;4.686;2023-12-14T08:42:05;5.95;;;4.22;;
25123;SDS011;13104;51.030;4.686;2023-12-14T08:44:31;5.60;;;4.70;;
25123;SDS011;13104;51.030;4.686;2023-12-14T08:46:57;14.05;;;5.13;;
25123;SDS011;13104;51.030;4.686;2023-12-14T08:49:23;7.07;;;4.00;;
25123;SDS011;13104;51.030;4.686;2023-12-14T08:51:49;3.78;;;3.40;;
25123;SDS011;13104;51.030;4.686;2023-12-14T08:54:16;15.50;;;3.90;;
25123;SDS011;13104;51.030;4.686;2023-12-14T08:56:42;5.22;;;3.95;;
25123;SDS011;13104;51.030;4.686;2023-12-14T08:59:08;5.55;;;3.30;;
25123;SDS011;13104;51.030;4.686;2023-12-14T09:01:34;9.50;;;4.78;;
25123;SDS011;13104;51.030;4.686;2023-12-14T09:04:00;4.85;;;3.72;;
25123;SDS011;13104;51.030;4.686;2023-12-14T09:06:26;4.72;;;4.10;;
25123;SDS011;13104;51.030;4.686;2023-12-14T09:08:52;7.20;;;4.55;;
25123;SDS011;13104;51.030;4.686;2023-12-14T09:11:18;4.70;;;4.25;;
25123;SDS011;13104;51.030;4.686;2023-12-14T09:13:45;7.85;;;4.93;;
25123;SDS011;13104;51.030;4.686;2023-12-14T09:16:11;7.80;;;5.05;;
25123;SDS011;13104;51.030;4.686;2023-12-14T09:18:37;5.05;;;3.88;;
25123;SDS011;13104;51.030;4.686;2023-12-14T09:21:03;7.70;;;4.88;;
25123;SDS011;13104;51.030;4.686;2023-12-14T09:23:29;6.60;;;5.35;;
25123;SDS011;13104;51.030;4.686;2023-12-14T09:25:55;6.10;;;4.65;;
25123;SDS011;13104;51.030;4.686;2023-12-14T09:28:22;19.88;;;5.22;;
25123;SDS011;13104;51.030;4.686;2023-12-14T09:30:49;8.65;;;5.38;;
25123;SDS011;13104;51.030;4.686;2023-12-14T09:33:15;5.13;;;4.75;;
25123;SDS011;13104;51.030;4.686;2023-12-14T09:35:41;5.70;;;5.20;;
25123;SDS011;13104;51.030;4.686;2023-12-14T09:38:07;10.93;;;5.93;;
25123;SDS011;13104;51.030;4.686;2023-12-14T09:40:33;7.82;;;4.65;;
25123;SDS011;13104;51.030;4.686;2023-12-14T09:43:02;6.10;;;3.88;;
25123;SDS011;13104;51.030;4.686;2023-12-14T09:45:28;4.97;;;3.67;;
25123;SDS011;13104;51.030;4.686;2023-12-14T09:47:58;3.95;;;3.28;;
25123;SDS011;13104;51.030;4.686;2023-12-14T09:50:25;3.92;;;2.55;;
25123;SDS011;13104;51.030;4.686;2023-12-14T09:52:51;3.60;;;2.20;;
25123;SDS011;13104;51.030;4.686;2023-12-14T09:55:17;4.15;;;2.30;;
25123;SDS011;13104;51.030;4.686;2023-12-14T09:57:43;2.20;;;1.75;;
25123;SDS011;13104;51.030;4.686;2023-12-14T10:00:10;2.22;;;2.05;;
25123;SDS011;13104;51.030;4.686;2023-12-14T10:02:39;4.60;;;2.42;;
25123;SDS011;13104;51.030;4.686;2023-12-14T10:05:08;2.42;;;2.22;;
25123;SDS011;13104;51.030;4.686;2023-12-14T10:07:39;8.98;;;2.15;;
25123;SDS011;13104;51.030;4.686;2023-12-14T10:10:12;6.93;;;3.10;;
25123;SDS011;13104;51.030;4.686;2023-12-14T10:12:55;4.88;;;2.20;;
25123;SDS011;13104;51.030;4.686;2023-12-14T10:15:21;2.50;;;2.03;;
25123;SDS011;13104;51.030;4.686;2023-12-14T10:17:51;5.65;;;2.53;;
25123;SDS011;13104;51.030;4.686;2023-12-14T10:20:22;3.60;;;1.63;;
25123;SDS011;13104;51.030;4.686;2023-12-14T10:22:49;3.08;;;1.63;;
25123;SDS011;13104;51.030;4.686;2023-12-14T10:25:17;2.83;;;1.60;;
25123;SDS011;13104;51.030;4.686;2023-12-14T10:27:47;3.35;;;2.03;;
25123;SDS011;13104;51.030;4.686;2023-12-14T10:30:13;3.10;;;1.85;;
25123;SDS011;13104;51.030;4.686;2023-12-14T10:32:40;4.00;;;2.10;;
25123;SDS011;13104;51.030;4.686;2023-12-14T10:35:06;2.35;;;1.52;;
25123;SDS011;13104;51.030;4.686;2023-12-14T10:37:34;2.60;;;2.13;;
25123;SDS011;13104;51.030;4.686;2023-12-14T10:40:05;3.70;;;1.85;;
25123;SDS011;13104;51.030;4.686;2023-12-14T10:42:31;5.13;;;1.77;;
25123;SDS011;13104;51.030;4.686;2023-12-14T10:44:57;5.60;;;2.17;;
25123;SDS011;13104;51.030;4.686;2023-12-14T10:47:25;2.17;;;1.50;;
25123;SDS011;13104;51.030;4.686;2023-12-14T10:49:52;2.55;;;1.33;;
25123;SDS011;13104;51.030;4.686;2023-12-14T10:52:19;4.60;;;2.22;;
25123;SDS011;13104;51.030;4.686;2023-12-14T10:54:47;3.35;;;1.65;;
25123;SDS011;13104;51.030;4.686;2023-12-14T10:57:15;3.15;;;1.67;;
25123;SDS011;13104;51.030;4.686;2023-12-14T10:59:41;2.58;;;1.48;;
25123;SDS011;13104;51.030;4.686;2023-12-14T11:02:08;2.92;;;1.48;;
25123;SDS011;13104;51.030;4.686;2023-12-14T11:04:54;6.18;;;1.83;;
25123;SDS011;13104;51.030;4.686;2023-12-14T11:10:06;3.08;;;1.63;;
25123;SDS011;13104;51.030;4.686;2023-12-14T11:12:33;2.22;;;1.50;;
25123;SDS011;13104;51.030;4.686;2023-12-14T11:14:59;2.22;;;1.52;;
25123;SDS011;13104;51.030;4.686;2023-12-14T11:17:25;2.67;;;1.80;;
25123;SDS011;13104;51.030;4.686;2023-12-14T11:19:54;6.00;;;2.70;;
25123;SDS011;13104;51.030;4.686;2023-12-14T11:22:24;2.90;;;2.03;;
25123;SDS011;13104;51.030;4.686;2023-12-14T11:24:53;3.42;;;2.38;;
25123;SDS011;13104;51.030;4.686;2023-12-14T11:27:20;2.03;;;1.70;;
25123;SDS011;13104;51.030;4.686;2023-12-14T11:29:47;6.05;;;2.28;;
25123;SDS011;13104;51.030;4.686;2023-12-14T11:32:13;2.28;;;2.05;;
25123;SDS011;13104;51.030;4.686;2023-12-14T11:34:39;2.85;;;1.90;;
25123;SDS011;13104;51.030;4.686;2023-12-14T11:37:05;3.70;;;2.13;;
25123;SDS011;13104;51.030;4.686;2023-12-14T11:39:32;4.10;;;1.58;;
25123;SDS011;13104;51.030;4.686;2023-12-14T11:42:01;4.95;;;2.70;;
25123;SDS011;13104;51.030;4.686;2023-12-14T11:44:28;2.25;;;1.77;;
25123;SDS011;13104;51.030;4.686;2023-12-14T11:46:55;6.40;;;2.67;;
25123;SDS011;13104;51.030;4.686;2023-12-14T11:49:23;2.05;;;1.80;;
25123;SDS011;13104;51.030;4.686;2023-12-14T11:51:50;4.22;;;2.17;;
25123;SDS011;13104;51.030;4.686;2023-12-14T11:54:17;4.72;;;2.45;;
25123;SDS011;13104;51.030;4.686;2023-12-14T11:56:47;2.95;;;2.28;;
25123;SDS011;13104;51.030;4.686;2023-12-14T11:59:14;2.50;;;2.20;;
25123;SDS011;13104;51.030;4.686;2023-12-14T12:01:52;5.07;;;2.85;;
25123;SDS011;13104;51.030;4.686;2023-12-14T12:04:19;4.20;;;2.60;;
25123;SDS011;13104;51.030;4.686;2023-12-14T12:06:45;2.55;;;2.15;;
25123;SDS011;13104;51.030;4.686;2023-12-14T12:09:11;3.03;;;2.25;;
25123;SDS011;13104;51.030;4.686;2023-12-14T12:11:38;3.38;;;2.40;;
25123;SDS011;13104;51.030;4.686;2023-12-14T12:14:04;3.60;;;2.13;;
25123;SDS011;13104;51.030;4.686;2023-12-14T12:16:30;5.63;;;2.50;;
25123;SDS011;13104;51.030;4.686;2023-12-14T12:18:56;4.15;;;2.33;;
25123;SDS011;13104;51.030;4.686;2023-12-14T12:21:22;2.70;;;1.90;;
25123;SDS011;13104;51.030;4.686;2023-12-14T12:23:48;2.75;;;2.25;;
25123;SDS011;13104;51.030;4.686;2023-12-14T12:26:14;4.03;;;2.88;;
25123;SDS011;13104;51.030;4.686;2023-12-14T12:28:41;3.72;;;1.70;;
25123;SDS011;13104;51.030;4.686;2023-12-14T12:31:07;2.38;;;1.65;;
25123;SDS011;13104;51.030;4.686;2023-12-14T12:33:33;3.67;;;1.92;;
25123;SDS011;13104;51.030;4.686;2023-12-14T12:36:02;3.10;;;1.70;;
25123;SDS011;13104;51.030;4.686;2023-12-14T12:38:29;3.55;;;1.70;;
25123;SDS011;13104;51.030;4.686;2023-12-14T12:40:55;2.70;;;1.42;;
25123;SDS011;13104;51.030;4.686;2023-12-14T12:43:21;2.70;;;1.80;;
25123;SDS011;13104;51.030;4.686;2023-12-14T12:45:47;4.80;;;2.15;;
25123;SDS011;13104;51.030;4.686;2023-12-14T12:48:13;4.10;;;1.75;;
25123;SDS011;13104;51.030;4.686;2023-12-14T12:50:40;1.63;;;1.48;;
25123;SDS011;13104;51.030;4.686;2023-12-14T12:53:06;4.00;;;2.28;;
25123;SDS011;13104;51.030;4.686;2023-12-14T12:55:32;1.65;;;1.33;;
25123;SDS011;13104;51.030;4.686;2023-12-14T12:57:59;2.60;;;1.55;;
25123;SDS011;13104;51.030;4.686;2023-12-14T13:00:29;2.45;;;1.60;;
25123;SDS011;13104;51.030;4.686;2023-12-14T13:02:56;1.80;;;1.35;;
25123;SDS011;13104;51.030;4.686;2023-12-14T13:05:22;2.97;;;1.90;;
25123;SDS011;13104;51.030;4.686;2023-12-14T13:07:50;5.05;;;2.65;;
25123;SDS011;13104;51.030;4.686;2023-12-14T13:10:16;1.95;;;1.15;;
25123;SDS011;13104;51.030;4.686;2023-12-14T13:12:44;1.42;;;1.23;;
25123;SDS011;13104;51.030;4.686;2023-12-14T13:15:10;5.00;;;1.75;;
25123;SDS011;13104;51.030;4.686;2023-12-14T13:17:36;3.85;;;1.73;;
25123;SDS011;13104;51.030;4.686;2023-12-14T13:20:02;3.58;;;1.67;;
25123;SDS011;13104;51.030;4.686;2023-12-14T13:22:28;11.98;;;1.75;;
25123;SDS011;13104;51.030;4.686;2023-12-14T13:24:54;2.25;;;1.52;;
25123;SDS011;13104;51.030;4.686;2023-12-14T13:27:20;3.20;;;2.00;;
25123;SDS011;13104;51.030;4.686;2023-12-14T13:29:46;1.98;;;1.77;;
25123;SDS011;13104;51.030;4.686;2023-12-14T13:32:13;2.67;;;1.85;;
25123;SDS011;13104;51.030;4.686;2023-12-14T13:34:39;2.72;;;2.00;;
25123;SDS011;13104;51.030;4.686;2023-12-14T13:37:05;6.68;;;2.40;;
25123;SDS011;13104;51.030;4.686;2023-12-14T13:39:33;2.75;;;1.80;;
25123;SDS011;13104;51.030;4.686;2023-12-14T13:42:02;5.38;;;2.05;;
25123;SDS011;13104;51.030;4.686;2023-12-14T13:44:28;3.90;;;2.60;;
25123;SDS011;13104;51.030;4.686;2023-12-14T13:46:54;2.58;;;2.05;;
25123;SDS011;13104;51.030;4.686;2023-12-14T13:49:21;2.95;;;2.20;;
25123;SDS011;13104;51.030;4.686;2023-12-14T13:51:47;2.97;;;2.58;;
25123;SDS011;13104;51.030;4.686;2023-12-14T13:54:13;3.15;;;2.00;;
25123;SDS011;13104;51.030;4.686;2023-12-14T13:56:39;4.13;;;2.22;;
25123;SDS011;13104;51.030;4.686;2023-12-14T13:59:05;4.70;;;2.30;;
25123;SDS011;13104;51.030;4.686;2023-12-14T14:01:31;2.65;;;2.40;;
25123;SDS011;13104;51.030;4.686;2023-12-14T14:03:57;11.63;;;2.72;;
25123;SDS011;13104;51.030;4.686;2023-12-14T14:06:23;2.95;;;2.25;;
25123;SDS011;13104;51.030;4.686;2023-12-14T14:08:49;7.80;;;2.33;;
25123;SDS011;13104;51.030;4.686;2023-12-14T14:11:15;3.63;;;2.58;;
25123;SDS011;13104;51.030;4.686;2023-12-14T14:13:41;2.38;;;2.10;;
25123;SDS011;13104;51.030;4.686;2023-12-14T14:16:07;3.78;;;1.92;;
25123;SDS011;13104;51.030;4.686;2023-12-14T14:18:34;3.72;;;2.88;;
25123;SDS011;13104;51.030;4.686;2023-12-14T14:21:00;4.78;;;3.10;;
25123;SDS011;13104;51.030;4.686;2023-12-14T14:23:26;2.97;;;2.30;;
25123;SDS011;13104;51.030;4.686;2023-12-14T14:25:52;5.47;;;2.63;;
25123;SDS011;13104;51.030;4.686;2023-12-14T14:28:20;4.25;;;2.33;;
25123;SDS011;13104;51.030;4.686;2023-12-14T14:30:46;2.80;;;2.13;;
25123;SDS011;13104;51.030;4.686;2023-12-14T14:33:13;3.45;;;1.85;;
25123;SDS011;13104;51.030;4.686;2023-12-14T14:35:43;5.57;;;1.98;;
25123;SDS011;13104;51.030;4.686;2023-12-14T14:38:10;2.58;;;2.08;;
25123;SDS011;13104;51.030;4.686;2023-12-14T14:40:36;6.15;;;2.35;;